Pagina principale
METAR-TAF:

METAR-TAF

Aeroporti :

Asyūṭ, Egitto

latitudine: 27-03N, longitudine: 031-01E, altezza: 226 m

Osservazione

Il bollettino è stato emesso 48 minuti fa, alle 18:00 UTC
Vento 9 kt da ovest
Temperature 11°C
Umidità 66%
Pressione 1017 hPa
Visibilità 10 km o più
nessuna nube inferiore a 1500 m e nessun cumulonembo

METAR: HEAT 241800Z 28009KT CAVOK 11/05 Q1017 NOSIG

Ora: 20:48 (18:48 UTC)

Previsione

Il bollettino è stato emesso 1 ora e 48 minuti fa, alle 17:00 UTC
Previsione valida dal 24 alle 18 UTC al 25 alle 24 UTC
Vento 15 kt da ovest/nord-ovest
Visibilità 10 km o più
nessuna nube inferiore a 1500 m e nessun cumulonembo
Temporaneamente
dal 24 alle 18 UTC al 24 alle 23 UTC
Visibilità: 6000 m
Nuvoloso ad un'altezza di 4000 ft
pioggia

TAF: HEAT 241700Z 2418/2524 29015KT CAVOK TEMPO 2418/2423 6000 RA BKN040

Osservazioni e previsioni meteorologiche di più di 4000 aeroporti (messaggi METAR e TAF).

Le stazioni disponibili sono rappresentate dai dischi gialli e rossi sulla carta.

Puntare il mouse per vedere il nome della stazione.

Clicca sopra per visualizzare le osservazioni e previsioni meteorologiche.

Per cambiare la mappa : fare clic sui pulsanti verdi con una croce nera per ingrandire, il pulsante verde con un trattino per diminuire, o sulla freccia verde per le mappe adiacenti.


METAR-TAF: